Time;durP1;ratioP1;P1;durP2;ratioP2;P2;SDS_P1;SDS_P2;PMS_P1;PMS_P2;Temp;Humidity;BMP_temperature;BMP_pressure;BME280_temperature;BME280_humidity;BME280_pressure;Samples;Min_cycle;Max_cycle;Signal;HPM_P1;HPM_P2
2023/03/17 00:00:18;;;;;;;4.03;2.70;;;8.20;99.90;;;;;;5031521;28;20211;-50
2023/03/17 00:02:45;;;;;;;5.53;3.75;;;8.10;99.90;;;;;;5031832;28;20163;-52
2023/03/17 00:05:23;;;;;;;6.25;3.30;;;8.10;99.90;;;;;;5031832;28;20229;-52
2023/03/17 00:07:52;;;;;;;12.40;5.45;;;8.10;99.90;;;;;;5031665;28;20249;-50
2023/03/17 00:10:22;;;;;;;11.23;4.68;;;8.10;99.90;;;;;;5031788;28;20624;-48
2023/03/17 00:12:49;;;;;;;8.32;4.00;;;8.10;99.90;;;;;;5031730;28;20208;-52
2023/03/17 00:15:16;;;;;;;8.18;4.35;;;8.00;99.90;;;;;;5031580;28;20628;-48
2023/03/17 00:17:43;;;;;;;6.28;3.45;;;8.00;99.90;;;;;;5031420;28;20182;-52
2023/03/17 00:20:38;;;;;;;4.68;3.40;;;8.00;99.90;;;;;;5031525;28;20210;-52
2023/03/17 00:23:04;;;;;;;5.32;3.33;;;8.00;99.90;;;;;;5022268;28;20317;-52
2023/03/17 00:25:33;;;;;;;6.35;3.55;;;8.00;99.90;;;;;;5031628;28;20258;-52
2023/03/17 00:28:00;;;;;;;12.05;4.70;;;8.00;99.90;;;;;;5031155;28;20178;-50
2023/03/17 00:30:27;;;;;;;9.75;4.68;;;8.00;99.90;;;;;;5031279;28;20171;-51
2023/03/17 00:32:57;;;;;;;12.68;7.20;;;8.00;99.90;;;;;;5031328;28;20635;-52
2023/03/17 00:35:26;;;;;;;6.20;3.55;;;7.90;99.90;;;;;;5031273;28;20239;-50
2023/03/17 00:37:54;;;;;;;6.82;3.63;;;7.90;99.90;;;;;;5031259;28;20163;-52
2023/03/17 00:40:31;;;;;;;6.40;2.85;;;7.90;99.90;;;;;;5031453;28;20613;-52
2023/03/17 00:42:58;;;;;;;5.68;3.15;;;7.90;99.90;;;;;;5031487;28;20174;-52
2023/03/17 00:45:25;;;;;;;9.80;3.85;;;7.90;99.90;;;;;;5031431;28;20258;-52
2023/03/17 00:47:54;;;;;;;4.78;3.20;;;7.90;99.90;;;;;;5031182;28;20164;-44
2023/03/17 00:50:23;;;;;;;3.90;2.75;;;7.90;99.90;;;;;;5031145;28;20711;-44
2023/03/17 00:52:50;;;;;;;7.78;3.00;;;7.90;99.90;;;;;;5031132;28;20182;-46
2023/03/17 00:55:18;;;;;;;3.55;2.92;;;7.90;99.90;;;;;;5034139;28;20564;-45
2023/03/17 00:57:46;;;;;;;5.28;3.47;;;7.90;99.90;;;;;;5034686;28;20175;-44
2023/03/17 01:00:25;;;;;;;5.88;3.42;;;7.90;99.90;;;;;;5034846;28;20232;-45
2023/03/17 01:02:53;;;;;;;3.97;2.63;;;7.90;99.90;;;;;;5034443;28;20171;-46
2023/03/17 01:05:20;;;;;;;4.60;2.80;;;7.90;99.90;;;;;;5034429;28;20171;-44
2023/03/17 01:07:51;;;;;;;4.15;3.10;;;7.80;99.90;;;;;;5032782;28;20219;-46
2023/03/17 01:10:23;;;;;;;4.13;2.80;;;7.80;99.90;;;;;;5034887;28;20202;-44
2023/03/17 01:12:49;;;;;;;4.68;2.35;;;7.80;99.90;;;;;;5034603;28;20523;-45
2023/03/17 01:15:15;;;;;;;5.32;2.90;;;7.80;99.90;;;;;;5034958;28;20172;-44
2023/03/17 01:17:41;;;;;;;4.85;3.08;;;7.80;99.90;;;;;;5034388;28;20164;-45
2023/03/17 01:20:11;;;;;;;4.75;2.45;;;7.80;99.90;;;;;;5033922;28;20203;-43
2023/03/17 01:22:37;;;;;;;4.70;2.70;;;7.80;99.90;;;;;;5034344;28;20167;-44
2023/03/17 01:25:03;;;;;;;3.72;2.53;;;7.80;99.90;;;;;;5034542;28;20183;-44
2023/03/17 01:27:34;;;;;;;5.55;2.78;;;7.80;99.90;;;;;;5033890;28;20653;-44
2023/03/17 01:29:59;;;;;;;3.22;2.45;;;7.80;99.90;;;;;;5034274;28;20171;-52
2023/03/17 01:32:25;;;;;;;5.53;2.72;;;7.80;99.90;;;;;;5034102;28;20164;-52
2023/03/17 01:34:52;;;;;;;4.18;2.90;;;7.80;99.90;;;;;;5034278;28;20642;-49
2023/03/17 01:37:18;;;;;;;4.55;2.40;;;7.70;99.90;;;;;;5034476;28;20167;-47
2023/03/17 01:39:44;;;;;;;4.38;2.30;;;7.70;99.90;;;;;;5034041;28;20572;-50
2023/03/17 01:42:10;;;;;;;5.68;2.35;;;7.70;99.90;;;;;;5034193;28;20180;-52
2023/03/17 01:45:00;;;;;;;5.70;2.28;;;7.70;99.90;;;;;;5032616;28;20172;-52
2023/03/17 01:47:27;;;;;;;2.85;2.38;;;7.60;99.90;;;;;;5033792;28;20283;-52
2023/03/17 01:49:53;;;;;;;4.35;2.80;;;7.60;99.90;;;;;;5034093;28;20499;-51
2023/03/17 01:52:21;;;;;;;4.55;2.45;;;7.60;99.90;;;;;;5033207;28;20247;-52
2023/03/17 01:54:56;;;;;;;4.78;2.30;;;7.60;99.90;;;;;;5033643;28;20175;-52
2023/03/17 01:57:35;;;;;;;5.25;2.70;;;7.50;99.90;;;;;;5033301;28;20631;-52
2023/03/17 02:00:11;;;;;;;4.38;2.17;;;7.50;99.90;;;;;;5034051;28;20203;-50
2023/03/17 02:02:40;;;;;;;4.75;2.80;;;7.50;99.90;;;;;;5033528;28;20167;-50
2023/03/17 02:05:10;;;;;;;4.38;2.58;;;7.50;99.90;;;;;;5032901;28;20199;-51
2023/03/17 02:07:37;;;;;;;3.47;1.98;;;7.50;99.90;;;;;;5033580;28;20226;-52
2023/03/17 02:10:04;;;;;;;8.10;2.75;;;7.50;99.90;;;;;;5033998;28;20734;-44
2023/03/17 02:12:29;;;;;;;4.82;2.22;;;7.50;99.90;;;;;;5033694;28;20172;-47
2023/03/17 02:14:56;;;;;;;4.38;2.75;;;7.50;99.90;;;;;;5033414;28;20178;-45
2023/03/17 02:17:24;;;;;;;3.58;2.20;;;7.50;99.90;;;;;;5033252;28;20225;-47
2023/03/17 02:19:50;;;;;;;2.92;2.63;;;7.50;99.90;;;;;;5033164;28;20199;-50
2023/03/17 02:22:18;;;;;;;3.85;2.30;;;7.40;99.90;;;;;;5033252;28;20175;-49
2023/03/17 02:24:46;;;;;;;6.18;2.58;;;7.40;99.90;;;;;;5033290;28;20246;-51
2023/03/17 02:27:17;;;;;;;5.28;2.75;;;7.40;99.90;;;;;;5013900;28;20168;-52
2023/03/17 02:29:45;;;;;;;3.85;2.63;;;7.40;99.90;;;;;;5012121;28;20226;-52
2023/03/17 02:32:12;;;;;;;2.70;2.50;;;7.40;99.90;;;;;;5016297;28;20171;-52
2023/03/17 02:34:38;;;;;;;4.72;2.47;;;7.30;99.90;;;;;;5033150;28;20175;-52
2023/03/17 02:37:04;;;;;;;3.05;2.20;;;7.30;99.90;;;;;;5033593;28;20173;-49
2023/03/17 02:39:30;;;;;;;8.27;2.30;;;7.30;99.90;;;;;;5033418;28;20195;-52
2023/03/17 02:41:57;;;;;;;3.90;2.58;;;7.20;99.90;;;;;;5033033;28;20175;-49
2023/03/17 02:44:22;;;;;;;4.95;3.00;;;7.20;99.90;;;;;;5032752;28;20168;-52
2023/03/17 02:46:48;;;;;;;4.28;2.65;;;7.20;99.90;;;;;;5032664;28;20627;-53
2023/03/17 02:49:14;;;;;;;4.60;2.85;;;7.10;99.90;;;;;;5032676;28;20217;-53
2023/03/17 02:51:40;;;;;;;2.67;2.30;;;7.10;99.90;;;;;;5032572;28;20240;-52
2023/03/17 02:54:06;;;;;;;5.43;2.80;;;7.10;99.90;;;;;;5033043;28;20171;-51
2023/03/17 02:56:31;;;;;;;4.63;2.88;;;7.10;99.90;;;;;;5032737;28;20179;-51
2023/03/17 02:58:57;;;;;;;6.40;2.88;;;7.10;99.90;;;;;;5032494;28;20293;-51
2023/03/17 03:01:22;;;;;;;4.82;3.20;;;7.10;99.90;;;;;;5032388;28;20245;-53
2023/03/17 03:03:48;;;;;;;5.90;2.88;;;7.10;99.90;;;;;;5032578;28;20171;-52
2023/03/17 03:06:14;;;;;;;4.55;2.50;;;7.00;99.90;;;;;;5031043;28;20650;-52
2023/03/17 03:08:40;;;;;;;6.75;2.90;;;7.10;99.90;;;;;;5032382;28;20215;-51
2023/03/17 03:11:05;;;;;;;3.72;2.50;;;7.00;99.90;;;;;;5032548;28;20171;-51
2023/03/17 03:13:31;;;;;;;3.13;2.50;;;7.00;99.90;;;;;;5032799;28;20199;-46
2023/03/17 03:15:57;;;;;;;2.85;2.40;;;7.00;99.90;;;;;;5032386;28;20183;-46
2023/03/17 03:18:23;;;;;;;3.22;2.47;;;7.00;99.90;;;;;;5031906;28;20258;-44
2023/03/17 03:20:49;;;;;;;4.85;2.78;;;7.00;99.90;;;;;;5032067;28;20325;-44
2023/03/17 03:23:15;;;;;;;6.93;2.67;;;7.00;99.90;;;;;;5032237;28;20698;-45
2023/03/17 03:25:41;;;;;;;3.85;2.63;;;7.00;99.90;;;;;;5031801;28;20568;-44
2023/03/17 03:28:07;;;;;;;6.07;2.35;;;7.00;99.90;;;;;;5031437;28;20534;-45
2023/03/17 03:30:35;;;;;;;2.58;2.25;;;7.00;99.90;;;;;;5032357;28;20179;-44
2023/03/17 03:33:01;;;;;;;3.55;2.80;;;10.20;99.90;;;;;;5032352;28;20761;-44
2023/03/17 03:35:28;;;;;;;4.50;2.63;;;7.00;99.90;;;;;;5031850;28;20179;-44
2023/03/17 03:37:55;;;;;;;5.35;2.85;;;7.00;99.90;;;;;;5031994;28;20182;-45
2023/03/17 03:40:21;;;;;;;3.20;2.28;;;7.00;99.90;;;;;;5031684;28;20683;-46
2023/03/17 03:42:47;;;;;;;5.00;2.70;;;7.00;99.90;;;;;;5031877;28;20301;-44
2023/03/17 03:45:12;;;;;;;3.78;2.38;;;7.00;99.90;;;;;;5031948;28;20208;-44
2023/03/17 03:47:38;;;;;;;6.85;2.78;;;7.00;99.90;;;;;;5031999;28;20167;-44
2023/03/17 03:50:04;;;;;;;5.00;2.78;;;6.90;99.90;;;;;;5032025;28;20171;-44
2023/03/17 03:52:29;;;;;;;5.20;3.15;;;8.50;99.90;;;;;;5032589;28;20171;-45
2023/03/17 03:54:55;;;;;;;4.68;2.67;;;6.90;99.90;;;;;;5031256;28;20573;-45
2023/03/17 03:57:21;;;;;;;3.58;2.88;;;6.90;99.90;;;;;;5031756;28;20171;-45
2023/03/17 03:59:46;;;;;;;5.05;2.60;;;6.80;99.90;;;;;;5031514;28;20294;-48
2023/03/17 04:02:12;;;;;;;6.85;3.45;;;6.80;99.90;;;;;;5031590;28;20175;-44
2023/03/17 04:04:37;;;;;;;6.55;3.28;;;6.90;99.90;;;;;;5031477;28;20175;-45
2023/03/17 04:07:03;;;;;;;6.20;3.55;;;6.80;99.90;;;;;;5031846;28;20167;-44
2023/03/17 04:09:28;;;;;;;8.48;4.38;;;6.80;99.90;;;;;;5031411;28;20259;-44
2023/03/17 04:11:54;;;;;;;8.07;4.85;;;6.80;99.90;;;;;;5031663;28;20172;-51
2023/03/17 04:14:19;;;;;;;11.48;5.65;;;6.80;99.90;;;;;;5031694;28;20183;-45
2023/03/17 04:16:45;;;;;;;9.57;5.50;;;6.80;99.90;;;;;;5031332;28;20686;-45
2023/03/17 04:19:11;;;;;;;9.85;4.88;;;6.80;99.90;;;;;;5031549;28;20210;-45
2023/03/17 04:21:36;;;;;;;7.63;3.15;;;6.80;99.90;;;;;;5031250;28;20258;-44
2023/03/17 04:24:04;;;;;;;4.72;2.55;;;6.80;99.90;;;;;;5031650;28;20195;-45
2023/03/17 04:26:30;;;;;;;5.68;2.40;;;6.80;99.90;;;;;;5031293;28;20175;-44
2023/03/17 04:28:56;;;;;;;4.82;2.80;;;6.70;99.90;;;;;;5032439;28;20168;-44
2023/03/17 04:31:22;;;;;;;4.43;2.50;;;6.70;99.90;;;;;;5035477;28;20217;-44
2023/03/17 04:33:47;;;;;;;4.93;3.17;;;6.70;99.90;;;;;;5034912;28;20546;-45
2023/03/17 04:36:20;;;;;;;5.43;2.95;;;6.60;99.90;;;;;;5035386;28;20160;-51
2023/03/17 04:38:46;;;;;;;8.82;3.60;;;6.60;99.90;;;;;;5035406;28;20179;-49
2023/03/17 04:41:12;;;;;;;6.10;3.40;;;6.70;99.90;;;;;;5034948;28;20241;-48
2023/03/17 04:43:38;;;;;;;4.82;2.92;;;6.70;99.90;;;;;;5034918;28;20563;-48
2023/03/17 04:46:04;;;;;;;3.05;2.70;;;6.60;99.90;;;;;;5035581;28;20171;-48
2023/03/17 04:48:30;;;;;;;7.10;3.25;;;6.70;99.90;;;;;;5035197;28;20163;-49
2023/03/17 04:50:56;;;;;;;3.70;2.53;;;6.60;99.90;;;;;;5035096;28;20167;-49
2023/03/17 04:53:22;;;;;;;5.00;3.38;;;6.70;99.90;;;;;;5035017;28;20241;-51
2023/03/17 04:55:47;;;;;;;5.20;3.08;;;6.60;99.90;;;;;;5034501;28;20171;-51
2023/03/17 04:58:13;;;;;;;4.75;3.13;;;6.60;99.90;;;;;;5034865;28;20182;-46
2023/03/17 05:00:38;;;;;;;5.57;3.20;;;6.60;99.90;;;;;;5034554;28;20706;-47
2023/03/17 05:03:07;;;;;;;6.53;3.00;;;6.60;99.90;;;;;;5034533;28;20186;-45
2023/03/17 05:05:34;;;;;;;3.90;2.92;;;6.60;99.90;;;;;;5034899;28;20179;-48
2023/03/17 05:08:00;;;;;;;6.65;3.47;;;6.70;99.90;;;;;;5034261;28;20679;-49
2023/03/17 05:10:26;;;;;;;5.18;3.00;;;6.60;99.90;;;;;;5034373;28;20170;-47
2023/03/17 05:12:52;;;;;;;6.47;3.33;;;6.60;99.90;;;;;;5034704;28;20626;-47
2023/03/17 05:15:17;;;;;;;3.42;3.13;;;6.60;99.90;;;;;;5034568;28;20168;-49
2023/03/17 05:17:43;;;;;;;7.47;3.00;;;6.60;99.90;;;;;;5034361;28;20638;-50
2023/03/17 05:20:10;;;;;;;6.35;3.25;;;6.60;99.90;;;;;;5034187;28;20709;-46
2023/03/17 05:22:36;;;;;;;5.13;3.30;;;6.60;99.90;;;;;;5034281;28;20171;-45
2023/03/17 05:25:03;;;;;;;4.97;3.10;;;6.60;99.90;;;;;;5034578;28;20567;-47
2023/03/17 05:27:29;;;;;;;10.45;3.42;;;6.60;99.90;;;;;;5034246;28;20547;-48
2023/03/17 05:29:55;;;;;;;5.07;3.28;;;6.60;99.90;;;;;;5034133;28;20195;-48
2023/03/17 05:32:20;;;;;;;5.57;4.75;;;6.60;99.90;;;;;;5033993;28;20627;-49
2023/03/17 05:34:46;;;;;;;4.95;3.30;;;6.60;99.90;;;;;;5033658;28;20190;-51
2023/03/17 05:37:13;;;;;;;4.85;3.20;;;6.60;99.90;;;;;;5033832;28;20540;-48
2023/03/17 05:39:38;;;;;;;4.82;3.60;;;6.60;99.90;;;;;;5033946;28;20203;-47
2023/03/17 05:42:05;;;;;;;5.28;3.22;;;6.60;99.90;;;;;;5033877;28;20503;-47
2023/03/17 05:44:30;;;;;;;5.93;3.20;;;6.60;99.90;;;;;;5033991;28;20179;-49
2023/03/17 05:46:58;;;;;;;3.22;2.83;;;6.60;99.90;;;;;;5033748;28;20685;-47
2023/03/17 05:49:24;;;;;;;4.90;3.55;;;6.70;99.90;;;;;;5033911;28;20290;-50
2023/03/17 05:51:50;;;;;;;5.32;3.90;;;6.70;99.90;;;;;;5033815;28;20178;-48
2023/03/17 05:54:15;;;;;;;4.95;3.17;;;6.70;99.90;;;;;;5033834;28;20167;-46
2023/03/17 05:56:41;;;;;;;7.85;3.55;;;6.70;99.90;;;;;;5033407;28;20178;-50
2023/03/17 05:59:08;;;;;;;5.78;3.90;;;6.70;99.90;;;;;;5033741;28;20171;-52
2023/03/17 06:01:33;;;;;;;8.55;3.53;;;6.70;99.90;;;;;;5033398;28;20669;-47
2023/03/17 06:04:00;;;;;;;6.68;3.95;;;6.70;99.90;;;;;;5033474;28;20179;-47
2023/03/17 06:06:26;;;;;;;7.22;3.78;;;6.70;99.90;;;;;;5033911;28;20254;-49
2023/03/17 06:08:52;;;;;;;5.85;3.30;;;6.70;99.90;;;;;;5032851;28;20667;-44
2023/03/17 06:11:21;;;;;;;7.13;3.28;;;6.70;99.90;;;;;;5033157;28;20168;-44
2023/03/17 06:13:47;;;;;;;6.53;3.85;;;6.70;99.90;;;;;;5033074;28;20202;-44
2023/03/17 06:16:13;;;;;;;4.95;3.10;;;6.80;99.90;;;;;;5032735;28;20167;-44
2023/03/17 06:18:39;;;;;;;5.95;3.75;;;6.80;99.90;;;;;;5032828;28;20654;-45
2023/03/17 06:21:05;;;;;;;7.00;3.47;;;6.80;99.90;;;;;;5033020;28;20211;-44
2023/03/17 06:23:30;;;;;;;17.23;5.32;;;6.90;99.90;;;;;;5033704;28;20167;-43
2023/03/17 06:25:56;;;;;;;8.93;3.65;;;6.90;99.90;;;;;;5033510;28;20168;-44
2023/03/17 06:28:22;;;;;;;5.53;3.70;;;6.90;99.90;;;;;;5030910;28;20172;-45
2023/03/17 06:30:47;;;;;;;8.05;3.58;;;7.00;99.90;;;;;;5032327;28;20202;-43
2023/03/17 06:33:13;;;;;;;8.40;3.45;;;7.00;99.90;;;;;;5031765;28;20167;-45
2023/03/17 06:35:39;;;;;;;6.25;3.58;;;7.00;99.90;;;;;;5032322;28;20689;-45
2023/03/17 06:38:05;;;;;;;5.32;3.47;;;7.10;99.90;;;;;;5032172;28;20708;-44
2023/03/17 06:40:31;;;;;;;5.25;3.22;;;7.10;99.90;;;;;;5032235;28;20246;-44
2023/03/17 06:42:57;;;;;;;6.07;3.65;;;7.20;99.90;;;;;;5032181;28;20195;-52
2023/03/17 06:45:23;;;;;;;7.25;3.78;;;7.30;99.90;;;;;;5032129;28;20167;-51
2023/03/17 06:47:49;;;;;;;5.22;3.30;;;7.30;99.90;;;;;;5032350;28;20160;-54
2023/03/17 06:50:15;;;;;;;4.13;3.28;;;7.40;99.90;;;;;;5032309;28;20635;-48
2023/03/17 06:52:41;;;;;;;8.68;3.55;;;7.30;99.90;;;;;;5030300;28;20225;-50
2023/03/17 06:55:09;;;;;;;6.18;3.63;;;7.40;99.90;;;;;;5032743;28;20561;-47
2023/03/17 06:57:36;;;;;;;4.97;3.47;;;7.40;99.90;;;;;;5031478;28;20175;-46
2023/03/17 07:00:05;;;;;;;4.75;3.20;;;7.50;99.90;;;;;;5032457;28;20207;-45
2023/03/17 07:02:32;;;;;;;6.32;3.83;;;7.60;99.90;;;;;;5032307;28;20697;-49
2023/03/17 07:04:59;;;;;;;4.45;3.20;;;7.50;99.90;;;;;;5031205;28;20175;-45
2023/03/17 07:07:26;;;;;;;3.75;3.25;;;7.70;99.90;;;;;;5030856;28;20233;-49
2023/03/17 07:09:53;;;;;;;4.93;3.20;;;7.70;99.90;;;;;;5032102;28;20163;-51
2023/03/17 07:12:20;;;;;;;6.63;3.33;;;7.70;99.90;;;;;;5031374;28;20163;-46
2023/03/17 07:14:46;;;;;;;7.50;3.42;;;7.70;99.90;;;;;;5031103;28;20167;-44
2023/03/17 07:17:13;;;;;;;4.07;3.38;;;7.90;99.90;;;;;;5031349;28;20174;-46
2023/03/17 07:19:41;;;;;;;7.72;3.63;;;8.00;99.90;;;;;;5031354;28;20198;-45
2023/03/17 07:22:08;;;;;;;7.63;4.10;;;8.20;99.90;;;;;;5031305;28;20186;-45
2023/03/17 07:24:34;;;;;;;5.88;3.70;;;8.30;99.90;;;;;;5030958;28;20163;-46
2023/03/17 07:26:59;;;;;;;10.65;3.30;;;8.30;99.90;;;;;;5031393;28;20171;-45
2023/03/17 07:29:26;;;;;;;4.28;3.20;;;8.40;99.90;;;;;;5031145;28;20173;-45
2023/03/17 07:31:52;;;;;;;5.75;3.42;;;8.60;99.90;;;;;;5030566;28;20262;-46
2023/03/17 07:34:18;;;;;;;6.43;3.40;;;8.70;99.90;;;;;;5031228;28;20269;-48
2023/03/17 07:36:43;;;;;;;8.00;3.65;;;8.80;99.90;;;;;;5030856;28;20591;-45
2023/03/17 07:39:09;;;;;;;7.72;3.83;;;8.90;99.90;;;;;;5031128;28;20175;-44
2023/03/17 07:41:35;;;;;;;6.20;3.13;;;9.00;99.90;;;;;;5030786;28;20246;-45
2023/03/17 07:44:02;;;;;;;6.28;3.35;;;9.00;99.90;;;;;;5030500;28;20207;-46
2023/03/17 07:46:28;;;;;;;5.38;3.67;;;9.10;99.90;;;;;;5031538;28;20179;-45
2023/03/17 07:48:54;;;;;;;3.88;3.17;;;9.10;99.90;;;;;;5030602;28;20174;-44
2023/03/17 07:51:21;;;;;;;7.47;3.75;;;9.20;99.90;;;;;;5030443;28;20175;-44
2023/03/17 07:53:48;;;;;;;3.75;3.20;;;9.20;99.90;;;;;;5031185;28;20171;-44
2023/03/17 07:56:15;;;;;;;5.88;3.50;;;9.20;99.90;;;;;;5031017;28;20187;-44
2023/03/17 07:58:41;;;;;;;12.57;4.03;;;9.20;99.90;;;;;;5030815;28;20592;-44
2023/03/17 08:01:07;;;;;;;4.78;3.15;;;9.20;99.90;;;;;;5030697;28;20303;-44
2023/03/17 08:03:33;;;;;;;8.60;3.10;;;9.20;99.90;;;;;;5031792;28;20225;-44
2023/03/17 08:05:59;;;;;;;6.60;3.13;;;9.30;99.90;;;;;;5035397;28;20266;-47
2023/03/17 08:08:26;;;;;;;6.78;3.40;;;9.30;99.90;;;;;;5034989;28;20215;-47
2023/03/17 08:10:57;;;;;;;6.07;3.45;;;9.30;99.90;;;;;;5034847;28;20545;-53
2023/03/17 08:13:23;;;;;;;9.82;3.42;;;9.40;99.90;;;;;;5034634;28;20206;-50
2023/03/17 08:15:51;;;;;;;5.90;3.30;;;9.40;99.90;;;;;;5034937;28;20217;-49
2023/03/17 08:18:17;;;;;;;10.10;3.40;;;9.60;99.90;;;;;;5035063;28;20164;-49
2023/03/17 08:20:43;;;;;;;7.07;3.28;;;9.70;99.90;;;;;;5033457;28;20210;-44
2023/03/17 08:23:09;;;;;;;6.53;3.40;;;9.70;99.90;;;;;;5034996;28;20250;-52
2023/03/17 08:25:34;;;;;;;8.10;3.55;;;9.80;99.90;;;;;;5034960;28;20650;-53
2023/03/17 08:28:00;;;;;;;8.88;3.55;;;9.80;99.90;;;;;;5035428;28;20171;-44
2023/03/17 08:30:26;;;;;;;4.65;3.03;;;10.00;99.90;;;;;;5034915;28;20178;-44
2023/03/17 08:32:53;;;;;;;9.15;3.38;;;10.10;99.90;;;;;;5034913;28;20160;-44
2023/03/17 08:35:19;;;;;;;5.10;3.22;;;10.10;99.90;;;;;;5035094;28;20217;-44
2023/03/17 08:37:46;;;;;;;5.90;3.22;;;10.10;99.90;;;;;;5034848;28;20167;-44
2023/03/17 08:40:15;;;;;;;6.65;3.75;;;10.20;99.90;;;;;;5034721;28;20560;-45
2023/03/17 08:42:42;;;;;;;4.85;2.80;;;10.20;99.90;;;;;;5034730;28;20214;-44
2023/03/17 08:45:09;;;;;;;6.22;3.40;;;10.20;99.90;;;;;;5034647;28;20159;-44
2023/03/17 08:47:37;;;;;;;6.50;3.17;;;10.20;99.90;;;;;;5034647;28;20588;-44
2023/03/17 08:50:04;;;;;;;7.38;3.50;;;10.20;99.90;;;;;;5034475;28;20531;-44
2023/03/17 08:52:29;;;;;;;6.10;3.35;;;10.20;99.90;;;;;;5034882;28;20174;-44
2023/03/17 08:54:55;;;;;;;5.78;3.03;;;10.30;99.90;;;;;;5034470;28;20167;-44
2023/03/17 08:57:21;;;;;;;9.35;2.75;;;10.40;99.90;;;;;;5034617;28;20163;-44
2023/03/17 08:59:47;;;;;;;5.45;3.38;;;10.50;99.90;;;;;;5034159;28;20206;-45
2023/03/17 09:02:13;;;;;;;4.50;2.80;;;10.70;99.90;;;;;;5033842;28;20538;-44
2023/03/17 09:04:40;;;;;;;5.55;2.92;;;10.90;99.90;;;;;;5033932;28;20182;-44
2023/03/17 09:07:06;;;;;;;6.05;3.10;;;11.10;99.90;;;;;;5032865;28;20631;-45
2023/03/17 09:09:34;;;;;;;4.05;2.97;;;11.20;99.90;;;;;;5034334;28;20175;-44
2023/03/17 09:12:00;;;;;;;4.80;2.97;;;11.30;99.90;;;;;;5034588;28;20182;-44
2023/03/17 09:14:26;;;;;;;6.45;3.78;;;11.60;99.90;;;;;;5033592;28;20164;-44
2023/03/17 09:16:52;;;;;;;4.57;2.97;;;11.70;99.90;;;;;;5033678;28;20201;-45
2023/03/17 09:19:17;;;;;;;9.15;3.20;;;11.70;99.90;;;;;;5033839;28;20164;-44
2023/03/17 09:21:43;;;;;;;4.30;3.35;;;11.70;99.90;;;;;;5033580;28;20206;-44
2023/03/17 09:24:09;;;;;;;3.97;3.33;;;11.80;99.90;;;;;;5033967;28;20779;-44
2023/03/17 09:26:35;;;;;;;7.25;3.08;;;11.80;99.90;;;;;;5033565;28;20620;-44
2023/03/17 09:29:02;;;;;;;9.00;3.42;;;11.90;99.90;;;;;;5034254;28;20177;-44
2023/03/17 09:31:28;;;;;;;4.72;3.00;;;11.90;99.90;;;;;;5033693;28;20171;-44
2023/03/17 09:33:53;;;;;;;4.00;2.50;;;11.90;99.90;;;;;;5034079;28;20688;-44
2023/03/17 09:36:19;;;;;;;4.80;2.47;;;11.90;99.90;;;;;;5033272;28;20597;-44
2023/03/17 09:38:45;;;;;;;6.45;2.92;;;12.10;99.90;;;;;;5033482;28;20606;-43
2023/03/17 09:41:31;;;;;;;4.88;2.65;;;12.20;99.90;;;;;;5033258;28;20310;-44
2023/03/17 09:44:25;;;;;;;4.03;2.90;;;12.40;99.90;;;;;;5033478;28;20192;-44
2023/03/17 09:47:16;;;;;;;7.10;3.28;;;12.60;99.90;;;;;;5031978;28;20600;-44
2023/03/17 09:49:51;;;;;;;6.47;2.83;;;12.60;99.90;;;;;;5033737;28;20239;-44
2023/03/17 09:52:23;;;;;;;8.32;3.40;;;12.70;99.90;;;;;;5033089;28;20175;-44
2023/03/17 09:54:49;;;;;;;4.45;2.40;;;12.80;99.90;;;;;;5033520;28;20175;-44
2023/03/17 09:57:21;;;;;;;5.38;3.08;;;12.90;99.90;;;;;;5033413;28;20171;-44
2023/03/17 09:59:52;;;;;;;4.53;2.97;;;13.00;99.90;;;;;;5033469;28;20667;-44
2023/03/17 10:02:28;;;;;;;5.78;3.03;;;13.10;99.90;;;;;;5033053;28;20218;-44
2023/03/17 10:04:53;;;;;;;5.22;2.53;;;13.10;99.90;;;;;;5032940;28;20167;-43
2023/03/17 10:07:52;;;;;;;3.70;2.58;;;13.10;99.90;;;;;;5032704;28;20317;-44
2023/03/17 10:10:47;;;;;;;4.72;2.70;;;13.20;99.90;;;;;;5030540;28;20179;-49
2023/03/17 10:13:31;;;;;;;5.63;2.67;;;13.20;99.90;;;;;;5032961;28;20258;-44
2023/03/17 10:16:05;;;;;;;5.95;2.70;;;13.20;99.90;;;;;;5033004;28;20167;-45
2023/03/17 10:18:43;;;;;;;6.43;2.97;;;13.30;99.90;;;;;;5033372;28;20269;-44
2023/03/17 10:21:12;;;;;;;4.95;2.92;;;13.30;99.90;;;;;;5032515;28;20281;-45
2023/03/17 10:23:38;;;;;;;8.15;2.90;;;13.40;99.90;;;;;;5032779;28;20170;-44
2023/03/17 10:26:20;;;;;;;5.28;3.00;;;13.40;99.90;;;;;;5031900;28;20253;-44
2023/03/17 10:28:45;;;;;;;6.85;3.10;;;13.50;99.90;;;;;;5032635;28;20163;-45
2023/03/17 10:31:18;;;;;;;4.57;2.80;;;13.80;99.90;;;;;;5032335;28;20187;-44
2023/03/17 10:33:48;;;;;;;5.00;2.60;;;13.80;99.90;;;;;;5032452;28;20206;-44
2023/03/17 10:36:16;;;;;;;4.60;2.35;;;13.90;99.90;;;;;;5032585;28;20168;-44
2023/03/17 10:38:53;;;;;;;6.03;2.78;;;14.10;99.90;;;;;;5030976;28;20222;-44
2023/03/17 10:41:18;;;;;;;7.43;2.65;;;14.20;99.90;;;;;;5032119;28;20206;-45
2023/03/17 10:43:52;;;;;;;6.60;3.30;;;14.30;99.90;;;;;;5032399;28;20628;-44
2023/03/17 10:46:23;;;;;;;4.85;2.70;;;14.40;99.90;;;;;;5031983;28;20721;-44
2023/03/17 10:48:52;;;;;;;5.80;2.42;;;14.70;99.90;;;;;;5032150;28;20171;-44
2023/03/17 10:51:39;;;;;;;4.68;2.70;;;14.70;99.90;;;;;;5031925;28;20168;-44
2023/03/17 10:54:14;;;;;;;7.78;4.88;;;14.80;99.90;;;;;;5031946;28;20213;-45
2023/03/17 10:56:41;;;;;;;5.68;3.42;;;15.00;99.90;;;;;;5031858;28;20250;-49
2023/03/17 10:59:30;;;;;;;8.98;5.88;;;15.10;99.90;;;;;;5032031;28;20205;-44
2023/03/17 11:02:01;;;;;;;6.05;2.90;;;15.10;99.90;;;;;;5031725;28;20257;-44
2023/03/17 11:04:37;;;;;;;23.25;15.63;;;15.10;99.90;;;;;;5032157;28;20167;-51
2023/03/17 11:07:14;;;;;;;9.95;4.10;;;15.30;99.90;;;;;;5031647;28;20205;-52
2023/03/17 11:09:39;;;;;;;5.22;2.60;;;15.30;99.90;;;;;;5031652;28;20584;-54
2023/03/17 11:12:17;;;;;;;10.77;5.50;;;15.30;99.90;;;;;;5031773;28;20195;-53
2023/03/17 11:14:43;;;;;;;6.80;3.45;;;15.30;99.90;;;;;;5031535;28;20179;-49
2023/03/17 11:17:23;;;;;;;12.30;6.47;;;15.40;99.90;;;;;;5031828;28;20226;-44
2023/03/17 11:20:04;;;;;;;17.52;10.93;;;15.60;99.90;;;;;;5031578;28;20623;-44
2023/03/17 11:22:39;;;;;;;17.08;10.80;;;15.70;99.90;;;;;;5032209;28;20179;-44
2023/03/17 11:25:10;;;;;;;27.23;16.08;;;17.00;99.90;;;;;;5031503;28;20225;-44
2023/03/17 11:27:58;;;;;;;27.67;17.52;;;15.60;99.90;;;;;;5031423;28;20269;-44
2023/03/17 11:30:27;;;;;;;14.73;9.00;;;15.60;99.90;;;;;;5031123;28;20175;-45
2023/03/17 11:33:16;;;;;;;5.80;4.13;;;15.70;99.90;;;;;;5031518;28;20174;-44
2023/03/17 11:35:56;;;;;;;7.85;4.78;;;15.80;99.90;;;;;;5031560;28;20206;-44
2023/03/17 11:38:31;;;;;;;24.42;14.07;;;16.00;99.90;;;;;;5031440;28;20178;-44
2023/03/17 11:41:07;;;;;;;11.80;6.40;;;16.00;99.90;;;;;;5031663;28;20202;-44
2023/03/17 11:43:36;;;;;;;6.50;3.53;;;16.20;99.90;;;;;;5030983;28;20163;-45
2023/03/17 11:46:12;;;;;;;43.65;33.53;;;16.00;99.90;;;;;;5031229;28;20163;-45
2023/03/17 11:48:57;;;;;;;15.13;12.00;;;16.00;99.90;;;;;;5030826;28;20217;-47
2023/03/17 11:52:11;;;;;;;7.85;3.45;;;16.00;99.90;;;;;;5031083;28;20254;-45
2023/03/17 11:55:10;;;;;;;5.72;4.00;;;15.90;99.90;;;;;;5031114;28;20186;-44
2023/03/17 11:57:55;;;;;;;10.10;6.93;;;15.70;99.90;;;;;;5030969;28;20191;-44
2023/03/17 12:00:33;;;;;;;13.35;11.00;;;15.60;99.90;;;;;;5030873;28;20203;-44
2023/03/17 12:03:24;;;;;;;13.10;8.18;;;15.80;99.90;;;;;;5031017;28;20297;-44
2023/03/17 12:05:54;;;;;;;7.95;6.28;;;15.90;99.90;;;;;;5031185;28;20217;-44
2023/03/17 12:08:32;;;;;;;5.07;3.20;;;16.00;99.90;;;;;;5030391;28;20598;-44
2023/03/17 12:11:01;;;;;;;6.40;4.22;;;16.00;99.90;;;;;;5031137;28;20174;-44
2023/03/17 12:13:46;;;;;;;6.07;3.45;;;16.00;99.90;;;;;;5031041;28;20216;-44
2023/03/17 12:16:14;;;;;;;6.03;2.92;;;15.90;99.90;;;;;;5030692;28;20630;-44
2023/03/17 12:19:02;;;;;;;5.18;2.80;;;15.90;99.90;;;;;;5030373;28;20658;-44
2023/03/17 12:22:02;;;;;;;3.63;2.72;;;15.80;99.90;;;;;;5031181;28;20215;-44
2023/03/17 12:24:35;;;;;;;7.35;3.00;;;15.90;99.90;;;;;;5030786;28;20184;-45
2023/03/17 12:27:12;;;;;;;9.57;4.90;;;16.00;99.90;;;;;;5031003;28;20171;-45
2023/03/17 12:29:43;;;;;;;7.00;4.53;;;16.10;99.90;;;;;;5030491;28;20237;-44
2023/03/17 12:32:17;;;;;;;7.38;3.22;;;16.20;99.90;;;;;;5030463;28;20176;-45
2023/03/17 12:34:54;;;;;;;5.45;3.85;;;16.20;99.90;;;;;;5030641;28;20257;-45
2023/03/17 12:37:20;;;;;;;7.03;4.00;;;16.20;99.90;;;;;;5030608;28;20182;-44
2023/03/17 12:39:59;;;;;;;10.05;4.68;;;16.30;99.90;;;;;;5030890;28;20175;-44
2023/03/17 12:42:33;;;;;;;9.40;6.63;;;16.20;99.90;;;;;;5030934;28;20252;-44
2023/03/17 12:45:36;;;;;;;14.95;8.77;;;16.40;99.90;;;;;;5031228;28;20167;-45
2023/03/17 12:48:27;;;;;;;8.75;4.18;;;16.50;99.90;;;;;;5030552;28;20245;-44
2023/03/17 12:51:05;;;;;;;7.93;3.78;;;16.60;99.90;;;;;;5033357;28;20274;-44
2023/03/17 12:53:33;;;;;;;14.57;10.15;;;16.60;99.90;;;;;;5034945;28;20183;-47
2023/03/17 12:56:27;;;;;;;12.50;7.15;;;16.50;99.90;;;;;;5034689;28;20199;-44
2023/03/17 12:59:00;;;;;;;13.45;6.70;;;16.50;99.90;;;;;;5033781;28;20262;-46
2023/03/17 13:01:42;;;;;;;3.70;2.70;;;16.50;99.90;;;;;;5034242;28;20214;-44
2023/03/17 13:04:15;;;;;;;6.93;4.00;;;16.50;99.90;;;;;;5034117;28;20632;-45